Terminal Aerodrome Forecast
Issued by NWS Omaha/Valley, NE

Home | Current Version | Previous Version | Text Only | Print | Product List | Glossary Off
Versions: 1 2 3 4 5 6 7 8 9 10 11 12 13 14 15 16 17 18 19 20 21 22 23 24 25 26 27 28 29 30 31 32 33 34 35 36 37 38 39

876
FTUS43 KOAX 280520
TAFOFK
TAF
KOFK 280520Z 2806/2906 VRB05KT 5SM -SHRA BKN060
      TEMPO 2808/2812 2SM BR BKN025
     FM281200 34006KT P6SM OVC030
     FM281800 31008KT P6SM OVC050=

USA.gov is the U.S. government's official web portal to all federal, state and local government web resources and services.